NCAR-RAP Real-Time Weather Data

Output produced by METARs form (19 June 2019  11:10 UTC)
found at http://weather.rap.ucar.edu/surface/
 
KIND 191054Z 00000KT 10SM FEW050 BKN120 BKN250 21/20 A2980 RMK AO2 SLP085 T02060200
KIND 190954Z 00000KT 10SM SCT055 BKN080 BKN250 21/20 A2979 RMK AO2 SLP083 T02110200
KIND 190854Z 00000KT 10SM FEW030 OVC080 22/20 A2980 RMK AO2 SLP084 T02220200 55013
KIND 190754Z 00000KT 10SM FEW025 SCT040 BKN090 22/20 A2980 RMK AO2 SLP082 T02170200
KIND 190744Z 00000KT 10SM FEW025 SCT040 BKN090 22/20 A2980 RMK AO2 T02170200
KIND 190654Z 26005KT 10SM BKN023 BKN031 OVC040 22/21 A2982 RMK AO2 SLP092 T02170206
KIND 190643Z 26004KT 10SM BKN023 BKN030 OVC095 22/21 A2982 RMK AO2 T02170206
KIND 190554Z 27004KT 10SM FEW090 BKN120 21/21 A2984 RMK AO2 SLP097 T02110206 10256 20211 58006
KIND 190454Z 27004KT 10SM BKN120 22/21 A2985 RMK AO2 SLP100 T02170206 402780200
KIND 190354Z 00000KT 10SM SCT060 BKN120 BKN250 23/20 A2985 RMK AO2 SLP102 T02280200
KIND 190254Z 00000KT 10SM BKN060 BKN110 BKN250 23/21 A2986 RMK AO2 SLP103 T02280206 53007
KIND 190154Z 16004KT 10SM FEW060 BKN110 BKN250 24/20 A2985 RMK AO2 SLP101 T02390200
KIND 190054Z 12003KT 10SM FEW050 BKN120 BKN250 25/19 A2984 RMK AO2 SLP097 CB DSNT S-SW MOV E T02500189
KIND 182354Z 09005KT 10SM FEW030 FEW070 SCT100 SCT250 26/19 A2983 RMK AO2 SLP096 CB DSNT SE-SW MOV E T02560189 10278 20239 56013
KIND 182254Z 04004KT 10SM FEW030 FEW070 SCT100 SCT250 26/20 A2984 RMK AO2 SLP097 CB DSNT SE-SW MOV E T02560200
KIND 182154Z 03007KT 10SM FEW030 SCT070 BKN100 BKN250 26/19 A2986 RMK AO2 SLP104 CB DSNT E MOV E T02560194
KIND 182054Z 04009KT 10SM SCT035CB BKN100 BKN250 25/20 A2987 RMK AO2 WSHFT 1957 SLP109 CB E MOV E TCU DSNT NW T02500200 56013
KIND 182016Z 35013KT 10SM SCT035CB BKN100 BKN250 24/20 A2988 RMK AO2 WSHFT 1957 LTG DSNT N AND NE CB N-NE MOV E T02440200
KIND 181954Z COR 28005KT 10SM SCT035CB BKN100 BKN250 27/19 A2987 RMK AO2 SLP110 CB NW-N MOV E T02670189
KIND 181854Z VRB03KT 10SM SCT029TCU BKN060 BKN090 28/20 A2989 RMK AO2 SLP114 TCU NE AND W-NW T02780200
KIND 181754Z 15005KT 10SM SCT024 BKN034 26/20 A2991 RMK AO2 SLP121 T02610200 10261 20206 58010
KIND 181654Z COR 16005KT 10SM FEW019 SCT050CB BKN140 25/21 A2992 RMK AO2 CB NE MOV E TCU N AND SE SLP127 T02500206
KIND 181554Z 20006KT 10SM FEW013 SCT019 BKN140 23/21 A2993 RMK AO2 SLP131 CB DSNT NE MOV E T02330206
KIND 181518Z 16006KT 8SM FEW012 SCT028 BKN140 23/21 A2994 RMK AO2 T02330206
KIND 181454Z 17003KT 8SM SCT012 BKN028 BKN140 23/20 A2994 RMK AO2 SLP132 TCU DSNT N T02280200 50001